Time;durP1;ratioP1;P1;durP2;ratioP2;P2;SDS_P1;SDS_P2;PMS_P1;PMS_P2;Temp;Humidity;BMP_temperature;BMP_pressure;BME280_temperature;BME280_humidity;BME280_pressure;Samples;Min_cycle;Max_cycle;Signal;HPM_P1;HPM_P2
2023/01/25 00:01:40;;;;;;;12.63;8.70;;;4.80;99.40;;;;;;6183562;23;20515;-84
2023/01/25 00:04:07;;;;;;;13.73;9.97;;;4.70;99.40;;;;;;6193209;23;20441;-84
2023/01/25 00:06:34;;;;;;;14.00;10.17;;;4.60;99.60;;;;;;6184562;23;20414;-85
2023/01/25 00:09:02;;;;;;;15.50;9.83;;;4.40;99.70;;;;;;6185052;23;20434;-85
2023/01/25 00:11:31;;;;;;;14.93;10.50;;;4.40;99.90;;;;;;6186574;23;20449;-87
2023/01/25 00:14:01;;;;;;;16.30;11.23;;;4.40;99.90;;;;;;6185555;23;20441;-85
2023/01/25 00:16:28;;;;;;;14.10;10.37;;;4.40;99.90;;;;;;6184551;23;20441;-85
2023/01/25 00:18:55;;;;;;;13.93;10.30;;;4.50;99.90;;;;;;6188692;23;20462;-83
2023/01/25 00:21:34;;;;;;;10.93;8.70;;;4.60;99.90;;;;;;6185386;23;20442;-86
2023/01/25 00:24:05;;;;;;;12.60;9.27;;;4.70;99.90;;;;;;6187564;23;20406;-84
2023/01/25 00:26:37;;;;;;;15.03;9.83;;;4.60;99.90;;;;;;6187706;23;20932;-86
2023/01/25 00:29:05;;;;;;;9.00;8.07;;;4.50;99.90;;;;;;6192193;23;20433;-83
2023/01/25 00:32:01;;;;;;;12.20;9.80;;;4.40;99.90;;;;;;6184553;23;20442;-84
2023/01/25 00:34:28;;;;;;;11.43;9.30;;;4.40;99.90;;;;;;6165989;23;20420;-84
2023/01/25 00:37:00;;;;;;;11.80;9.23;;;4.40;99.90;;;;;;6190305;23;20420;-83
2023/01/25 00:39:30;;;;;;;12.60;9.80;;;4.60;99.90;;;;;;6205134;23;20509;-87
2023/01/25 00:41:57;;;;;;;13.37;9.00;;;4.50;99.90;;;;;;6198733;23;20914;-85
2023/01/25 00:44:25;;;;;;;14.70;9.67;;;4.50;99.90;;;;;;6191205;23;20416;-85
2023/01/25 00:46:54;;;;;;;14.50;9.83;;;4.50;99.90;;;;;;6193687;23;20422;-85
2023/01/25 00:49:26;;;;;;;14.47;10.27;;;4.30;99.90;;;;;;6190963;23;20513;-86
2023/01/25 00:52:00;;;;;;;12.00;9.00;;;4.30;99.90;;;;;;6186417;23;20410;-86
2023/01/25 00:54:29;;;;;;;13.73;10.20;;;4.30;99.90;;;;;;6183927;23;20410;-84
2023/01/25 00:56:57;;;;;;;12.27;9.47;;;4.10;99.90;;;;;;6183484;23;20472;-84
2023/01/25 00:59:27;;;;;;;15.20;10.83;;;4.10;99.90;;;;;;6187153;23;20566;-88
2023/01/25 01:01:54;;;;;;;14.20;10.50;;;4.20;99.90;;;;;;6184391;23;20446;-88
2023/01/25 01:04:24;;;;;;;12.70;10.13;;;4.20;99.90;;;;;;6188698;23;20505;-83
2023/01/25 01:06:56;;;;;;;15.40;9.47;;;4.20;99.90;;;;;;6194317;23;20394;-87
2023/01/25 01:09:25;;;;;;;12.77;9.57;;;4.40;99.90;;;;;;6198501;23;20414;-86
2023/01/25 01:11:53;;;;;;;13.83;9.60;;;4.20;99.90;;;;;;6198722;23;20402;-85
2023/01/25 01:14:21;;;;;;;10.10;8.63;;;4.10;99.90;;;;;;6221655;23;20433;-85
2023/01/25 01:16:51;;;;;;;15.23;10.40;;;4.30;99.90;;;;;;6195485;23;20394;-86
2023/01/25 01:19:21;;;;;;;12.43;8.83;;;4.20;99.90;;;;;;6198758;23;20426;-86
2023/01/25 01:21:49;;;;;;;13.43;10.20;;;4.50;99.90;;;;;;6197684;23;20448;-84
2023/01/25 01:24:19;;;;;;;11.40;8.17;;;4.40;99.90;;;;;;6196998;23;20413;-86
2023/01/25 01:26:46;;;;;;;15.07;9.60;;;4.50;99.90;;;;;;6198067;23;20422;-85
2023/01/25 01:29:13;;;;;;;13.13;9.47;;;4.40;99.90;;;;;;6198493;23;20504;-87
2023/01/25 01:31:40;;;;;;;11.77;9.20;;;4.40;99.90;;;;;;6202594;23;20421;-86
2023/01/25 01:34:13;;;;;;;13.23;9.30;;;4.30;99.90;;;;;;6200891;23;20422;-85
2023/01/25 01:36:43;;;;;;;13.83;9.83;;;4.40;99.90;;;;;;6202751;23;20398;-86
2023/01/25 01:39:13;;;;;;;12.03;10.20;;;4.50;99.90;;;;;;6202306;23;20448;-87
2023/01/25 01:41:40;;;;;;;12.30;9.13;;;4.30;99.90;;;;;;6199477;23;20422;-86
2023/01/25 01:44:18;;;;;;;10.93;8.90;;;4.10;99.90;;;;;;6201165;23;20408;-85
2023/01/25 01:46:51;;;;;;;12.43;8.87;;;4.20;99.90;;;;;;6202479;23;20429;-86
2023/01/25 01:49:23;;;;;;;12.57;9.87;;;4.40;99.90;;;;;;6203491;23;20421;-87
2023/01/25 01:52:06;;;;;;;10.40;8.60;;;4.40;99.90;;;;;;6202503;23;20702;-86
2023/01/25 01:54:46;;;;;;;16.27;9.93;;;4.30;99.90;;;;;;6201279;23;20401;-87
2023/01/25 01:57:20;;;;;;;14.17;11.20;;;4.10;99.90;;;;;;6199580;23;20398;-87
2023/01/25 02:00:03;;;;;;;12.67;10.30;;;4.20;99.90;;;;;;6198612;23;20434;-85
2023/01/25 02:02:37;;;;;;;12.53;8.50;;;4.20;99.90;;;;;;6199701;23;20433;-86
2023/01/25 02:05:21;;;;;;;12.40;9.90;;;4.40;99.90;;;;;;6197791;23;20665;-85
2023/01/25 02:07:55;;;;;;;11.10;9.07;;;4.30;99.90;;;;;;6181751;23;20493;-86
2023/01/25 02:10:24;;;;;;;13.27;9.90;;;4.10;99.90;;;;;;6186231;23;20460;-87
2023/01/25 02:12:57;;;;;;;12.23;9.57;;;4.00;99.90;;;;;;6181289;23;20513;-85
2023/01/25 02:15:31;;;;;;;12.80;9.40;;;4.00;99.90;;;;;;6182206;23;20436;-86
2023/01/25 02:17:58;;;;;;;15.70;10.60;;;3.80;99.90;;;;;;6183978;23;20398;-85
2023/01/25 02:20:39;;;;;;;15.07;11.07;;;3.80;99.90;;;;;;6200202;23;20434;-87
2023/01/25 02:23:29;;;;;;;13.83;10.50;;;4.00;99.90;;;;;;6196610;23;20946;-87
2023/01/25 02:26:04;;;;;;;12.23;9.57;;;4.30;99.90;;;;;;6198122;23;20481;-86
2023/01/25 02:28:49;;;;;;;16.20;11.00;;;4.50;99.90;;;;;;6198271;23;20448;-86
2023/01/25 02:31:18;;;;;;;13.90;9.57;;;4.50;99.90;;;;;;6198771;23;20445;-88
2023/01/25 02:33:46;;;;;;;11.83;8.73;;;4.30;99.90;;;;;;6191226;23;20421;-84
2023/01/25 02:36:19;;;;;;;11.93;9.73;;;4.10;99.90;;;;;;6183355;23;20425;-87
2023/01/25 02:38:56;;;;;;;13.47;9.87;;;3.90;99.90;;;;;;6189641;23;20430;-85
2023/01/25 02:41:38;;;;;;;13.67;11.07;;;4.10;99.90;;;;;;6198005;23;20654;-88
2023/01/25 02:44:12;;;;;;;14.17;11.60;;;3.90;99.90;;;;;;6205889;23;20422;-85
2023/01/25 02:46:40;;;;;;;14.23;11.30;;;4.20;99.90;;;;;;6204861;23;20413;-85
2023/01/25 02:49:14;;;;;;;18.57;13.00;;;4.30;99.90;;;;;;6202288;23;20432;-88
2023/01/25 02:51:46;;;;;;;13.83;10.77;;;4.30;99.90;;;;;;6207882;23;20394;-87
2023/01/25 02:54:19;;;;;;;13.93;9.50;;;4.20;99.90;;;;;;6205849;23;20461;-87
2023/01/25 02:56:46;;;;;;;16.40;11.10;;;4.50;99.90;;;;;;6229330;22;20657;-87
2023/01/25 02:59:13;;;;;;;14.60;11.03;;;4.40;99.90;;;;;;6206939;23;20509;-86
2023/01/25 03:01:42;;;;;;;17.50;10.37;;;4.40;99.90;;;;;;6205790;23;20433;-88
2023/01/25 03:04:10;;;;;;;16.27;11.33;;;4.40;99.90;;;;;;6204936;23;20440;-85
2023/01/25 03:06:38;;;;;;;13.37;10.83;;;4.30;99.90;;;;;;6205661;23;20385;-86
2023/01/25 03:09:07;;;;;;;13.97;10.07;;;4.20;99.90;;;;;;6201180;23;20438;-87
2023/01/25 03:11:35;;;;;;;15.70;9.93;;;4.30;99.90;;;;;;6201528;23;20436;-86
2023/01/25 03:14:02;;;;;;;12.70;9.90;;;4.30;99.90;;;;;;6200584;23;20428;-88
2023/01/25 03:16:30;;;;;;;13.60;10.00;;;4.20;99.90;;;;;;6201104;23;20409;-88
2023/01/25 03:18:57;;;;;;;17.90;11.07;;;4.30;99.90;;;;;;6200465;23;20433;-87
2023/01/25 03:21:25;;;;;;;14.10;10.90;;;4.30;99.90;;;;;;6200818;23;20445;-89
2023/01/25 03:23:58;;;;;;;15.40;12.50;;;4.10;99.90;;;;;;6200303;23;20747;-88
2023/01/25 03:26:26;;;;;;;17.00;11.43;;;4.10;99.90;;;;;;6199252;23;20394;-88
2023/01/25 03:28:58;;;;;;;16.13;11.40;;;4.20;99.90;;;;;;6200331;23;20432;-88
2023/01/25 03:31:27;;;;;;;16.83;11.50;;;4.20;99.90;;;;;;6201013;23;20871;-88
2023/01/25 03:33:57;;;;;;;14.60;11.20;;;4.20;99.90;;;;;;6202298;23;20394;-86
2023/01/25 03:36:26;;;;;;;15.23;10.60;;;4.20;99.90;;;;;;6204331;23;20504;-88
2023/01/25 03:38:53;;;;;;;14.90;10.63;;;4.20;99.90;;;;;;6204217;23;20440;-86
2023/01/25 03:41:24;;;;;;;17.73;11.77;;;4.10;99.90;;;;;;6202538;23;20466;-86
2023/01/25 03:43:54;;;;;;;15.40;11.27;;;4.00;99.90;;;;;;6201279;23;20401;-87
2023/01/25 03:46:23;;;;;;;15.13;11.13;;;3.90;99.90;;;;;;6203879;23;20410;-86
2023/01/25 03:48:53;;;;;;;19.37;12.60;;;4.10;99.90;;;;;;6201436;23;20445;-87
2023/01/25 03:51:20;;;;;;;13.23;9.00;;;4.00;99.90;;;;;;6200460;23;20471;-88
2023/01/25 03:53:53;;;;;;;14.23;10.33;;;4.10;99.90;;;;;;6197468;23;20417;-86
2023/01/25 03:56:23;;;;;;;14.67;11.80;;;4.20;99.90;;;;;;6185084;23;20484;-87
2023/01/25 03:58:56;;;;;;;16.50;11.47;;;4.10;99.90;;;;;;6183849;23;20442;-87
2023/01/25 04:01:26;;;;;;;15.80;11.43;;;4.20;99.90;;;;;;6189969;23;20453;-86
2023/01/25 04:03:52;;;;;;;15.80;11.60;;;4.10;99.90;;;;;;6191115;23;20409;-87
2023/01/25 04:06:19;;;;;;;17.47;12.20;;;4.00;99.90;;;;;;6192611;23;20406;-86
2023/01/25 04:08:46;;;;;;;16.13;11.10;;;3.90;99.90;;;;;;6190801;23;20766;-85
2023/01/25 04:11:13;;;;;;;13.83;11.20;;;3.90;99.90;;;;;;6188797;23;20421;-88
2023/01/25 04:13:42;;;;;;;12.07;10.13;;;3.90;99.90;;;;;;6184541;23;20420;-86
2023/01/25 04:16:11;;;;;;;14.03;9.73;;;3.70;99.90;;;;;;6188766;23;20763;-89
2023/01/25 04:18:39;;;;;;;14.37;9.67;;;3.90;99.90;;;;;;6203781;23;20452;-86
2023/01/25 04:21:08;;;;;;;16.57;10.90;;;4.00;99.90;;;;;;6205569;23;20409;-87
2023/01/25 04:23:35;;;;;;;15.40;12.13;;;4.10;99.90;;;;;;6196828;22;20459;-88
2023/01/25 04:26:05;;;;;;;15.87;11.27;;;4.00;99.90;;;;;;6191473;23;20479;-87
2023/01/25 04:28:35;;;;;;;14.90;10.33;;;4.10;99.90;;;;;;6193151;23;20425;-87
2023/01/25 04:31:04;;;;;;;13.80;10.67;;;4.10;99.90;;;;;;6204755;23;20425;-88
2023/01/25 04:33:34;;;;;;;18.20;12.83;;;4.00;99.90;;;;;;6196796;23;20472;-86
2023/01/25 04:36:02;;;;;;;16.03;11.47;;;3.80;99.90;;;;;;6191611;23;20438;-85
2023/01/25 04:38:35;;;;;;;14.60;10.60;;;3.90;99.90;;;;;;6189497;23;20398;-87
2023/01/25 04:41:14;;;;;;;16.90;12.37;;;4.00;99.90;;;;;;6190021;23;20414;-88
2023/01/25 04:43:51;;;;;;;14.13;11.10;;;3.90;99.90;;;;;;6169400;23;20414;-86
2023/01/25 04:46:20;;;;;;;16.27;10.90;;;4.00;99.90;;;;;;6194319;23;20428;-86
2023/01/25 04:48:47;;;;;;;14.50;10.33;;;4.00;99.90;;;;;;6200571;23;20437;-86
2023/01/25 04:51:17;;;;;;;16.57;10.70;;;4.00;99.90;;;;;;6200388;23;20410;-86
2023/01/25 04:53:46;;;;;;;16.30;11.27;;;4.00;99.90;;;;;;6198093;23;20481;-87
2023/01/25 04:56:15;;;;;;;19.97;13.67;;;4.00;99.90;;;;;;6192320;23;20410;-87
2023/01/25 04:58:46;;;;;;;17.07;11.27;;;4.00;99.90;;;;;;6191420;23;20480;-86
2023/01/25 05:01:16;;;;;;;16.60;11.63;;;4.10;99.90;;;;;;6190914;23;20882;-85
2023/01/25 05:03:46;;;;;;;16.00;11.70;;;4.00;99.90;;;;;;6191797;23;20419;-87
2023/01/25 05:06:17;;;;;;;16.63;11.60;;;4.00;99.90;;;;;;6192356;23;20807;-87
2023/01/25 05:08:44;;;;;;;15.33;10.87;;;3.70;99.90;;;;;;6191526;23;20437;-87
2023/01/25 05:11:12;;;;;;;17.90;11.90;;;3.80;99.90;;;;;;6190824;23;20442;-89
2023/01/25 05:13:39;;;;;;;17.07;11.50;;;3.90;99.90;;;;;;6199676;23;20442;-87
2023/01/25 05:16:07;;;;;;;18.27;12.73;;;3.90;99.90;;;;;;6197551;23;20480;-87
2023/01/25 05:18:45;;;;;;;16.67;11.47;;;3.70;99.90;;;;;;6207046;23;20430;-87
2023/01/25 05:24:10;;;;;;;16.37;11.20;;;3.90;99.90;;;;;;6200778;23;20448;-88
2023/01/25 05:27:00;;;;;;;15.60;11.20;;;3.80;99.90;;;;;;6174732;23;20425;-89
2023/01/25 05:29:45;;;;;;;16.00;11.30;;;3.80;99.90;;;;;;6194314;23;20434;-87
2023/01/25 05:32:15;;;;;;;16.97;11.83;;;4.00;99.90;;;;;;6192655;23;20429;-89
2023/01/25 05:34:55;;;;;;;16.83;11.50;;;4.00;99.90;;;;;;6190079;23;20417;-87
2023/01/25 05:37:29;;;;;;;15.27;11.20;;;3.90;99.90;;;;;;6190162;23;20409;-87
2023/01/25 05:39:57;;;;;;;15.50;11.00;;;4.00;99.90;;;;;;6189964;23;20438;-87
2023/01/25 05:42:26;;;;;;;13.87;10.37;;;4.00;99.90;;;;;;6165766;23;21092;-89
2023/01/25 05:44:57;;;;;;;13.37;10.40;;;3.90;99.90;;;;;;6187471;23;20410;-87
2023/01/25 05:47:27;;;;;;;16.37;11.20;;;3.90;99.90;;;;;;6187900;23;20418;-87
2023/01/25 05:50:04;;;;;;;15.73;11.60;;;4.10;99.90;;;;;;6187024;23;21011;-87
2023/01/25 05:52:48;;;;;;;19.10;13.30;;;3.90;99.90;;;;;;6182024;23;20406;-86
2023/01/25 05:55:19;;;;;;;14.53;11.00;;;4.00;99.90;;;;;;6185583;23;20436;-87
2023/01/25 05:57:58;;;;;;;14.00;10.70;;;4.00;99.90;;;;;;6187296;23;20410;-86
2023/01/25 06:00:29;;;;;;;13.60;10.97;;;4.00;99.90;;;;;;6187238;23;20692;-85
2023/01/25 06:03:06;;;;;;;13.90;11.30;;;4.00;99.90;;;;;;6194987;23;20441;-85
2023/01/25 06:05:41;;;;;;;18.73;12.80;;;4.00;99.90;;;;;;6187509;23;20409;-86
2023/01/25 06:08:14;;;;;;;16.70;11.50;;;3.70;99.90;;;;;;6184666;23;20449;-87
2023/01/25 06:10:57;;;;;;;15.67;10.70;;;4.00;99.90;;;;;;6180596;23;20416;-87
2023/01/25 06:13:29;;;;;;;15.37;12.50;;;4.00;99.90;;;;;;6188762;23;20400;-86
2023/01/25 06:16:06;;;;;;;14.70;11.87;;;3.80;99.90;;;;;;6184067;23;20508;-86
2023/01/25 06:18:38;;;;;;;18.13;11.10;;;3.90;99.90;;;;;;6184615;23;20433;-85
2023/01/25 06:21:15;;;;;;;14.20;10.60;;;4.00;99.90;;;;;;6185086;23;20413;-86
2023/01/25 06:23:45;;;;;;;12.90;10.17;;;4.10;99.90;;;;;;6183506;23;20505;-86
2023/01/25 06:26:24;;;;;;;16.20;12.37;;;3.90;99.90;;;;;;6184147;23;20428;-85
2023/01/25 06:29:07;;;;;;;12.77;10.90;;;3.70;99.90;;;;;;6183382;23;20430;-87
2023/01/25 06:31:53;;;;;;;18.10;12.87;;;4.00;99.90;;;;;;6184821;23;20454;-87
2023/01/25 06:34:36;;;;;;;16.83;11.47;;;4.20;99.90;;;;;;6174572;23;20410;-86
2023/01/25 06:37:06;;;;;;;13.73;9.83;;;4.10;99.90;;;;;;6166522;23;20409;-85
2023/01/25 06:39:33;;;;;;;19.07;13.00;;;4.10;99.90;;;;;;6194431;23;20437;-86
2023/01/25 06:42:09;;;;;;;14.93;12.00;;;4.00;99.90;;;;;;6184462;23;20445;-85
2023/01/25 06:44:41;;;;;;;17.23;11.47;;;3.70;99.90;;;;;;6185351;23;20867;-88
2023/01/25 06:47:15;;;;;;;16.50;12.93;;;4.00;99.90;;;;;;6182001;23;20404;-90
2023/01/25 06:49:42;;;;;;;16.07;12.20;;;4.00;99.90;;;;;;6185203;23;20465;-87
2023/01/25 06:52:35;;;;;;;17.30;11.57;;;4.10;99.90;;;;;;6184327;23;20774;-88
2023/01/25 06:55:12;;;;;;;15.90;11.80;;;3.80;99.90;;;;;;6182966;23;20409;-86
2023/01/25 06:58:04;;;;;;;15.33;12.07;;;3.90;99.90;;;;;;6184533;23;20413;-86
2023/01/25 07:00:48;;;;;;;16.40;12.27;;;3.90;99.90;;;;;;6181211;23;20497;-87
2023/01/25 07:03:30;;;;;;;15.57;12.30;;;3.70;99.90;;;;;;6158424;23;21565;-86
2023/01/25 07:06:12;;;;;;;17.10;11.40;;;3.90;99.90;;;;;;6186117;23;20413;-86
2023/01/25 07:08:43;;;;;;;19.07;13.13;;;3.90;99.90;;;;;;6186573;23;20953;-86
2023/01/25 07:11:25;;;;;;;19.93;13.40;;;3.80;99.90;;;;;;6186959;23;20414;-86
2023/01/25 07:13:59;;;;;;;17.60;12.57;;;3.80;99.90;;;;;;6186885;23;20417;-87
2023/01/25 07:16:35;;;;;;;20.80;13.90;;;3.80;99.90;;;;;;6186429;23;20425;-87
2023/01/25 07:19:12;;;;;;;19.60;13.93;;;3.70;99.90;;;;;;6195721;23;20499;-88
2023/01/25 07:21:42;;;;;;;22.00;13.60;;;3.90;99.90;;;;;;6204045;23;20691;-90
2023/01/25 07:24:27;;;;;;;18.00;12.43;;;3.90;99.90;;;;;;6204494;23;20442;-90
2023/01/25 07:27:04;;;;;;;18.70;13.00;;;3.90;99.90;;;;;;6207856;23;20420;-88
2023/01/25 07:29:35;;;;;;;17.23;13.33;;;3.70;99.90;;;;;;6199863;23;20524;-86
2023/01/25 07:32:06;;;;;;;17.77;13.70;;;3.60;99.90;;;;;;6189151;23;20409;-87
2023/01/25 07:34:35;;;;;;;14.63;11.33;;;3.70;99.90;;;;;;6193327;23;20431;-89
2023/01/25 07:37:08;;;;;;;17.43;12.67;;;3.80;99.90;;;;;;6206424;23;20408;-88
2023/01/25 07:39:51;;;;;;;20.50;14.10;;;3.60;99.90;;;;;;6206037;23;20417;-90
2023/01/25 07:42:18;;;;;;;18.70;13.10;;;3.60;99.90;;;;;;6206146;23;20448;-89
2023/01/25 07:44:49;;;;;;;14.80;12.07;;;3.50;99.90;;;;;;6204980;23;20398;-87
2023/01/25 07:47:20;;;;;;;15.10;11.80;;;4.00;99.90;;;;;;6179240;23;20937;-85
2023/01/25 07:53:01;;;;;;;23.47;14.20;;;3.90;99.90;;;;;;6171406;23;20413;-85
2023/01/25 07:55:37;;;;;;;17.07;12.60;;;4.10;99.90;;;;;;6194383;23;20416;-86
2023/01/25 07:58:21;;;;;;;18.80;13.80;;;4.00;99.90;;;;;;6196573;23;20410;-88
2023/01/25 08:01:11;;;;;;;20.10;14.43;;;4.00;99.90;;;;;;6194986;23;20429;-88
2023/01/25 08:03:54;;;;;;;19.70;14.03;;;3.80;99.90;;;;;;6197232;23;20469;-85
2023/01/25 08:06:30;;;;;;;20.70;14.43;;;3.90;99.90;;;;;;6196594;23;20485;-88
2023/01/25 08:08:59;;;;;;;24.93;15.67;;;3.90;99.90;;;;;;6194036;23;20438;-87
2023/01/25 08:11:42;;;;;;;23.07;15.87;;;3.90;99.90;;;;;;6198875;23;20421;-86
2023/01/25 08:14:19;;;;;;;23.00;15.20;;;4.10;99.90;;;;;;6198109;23;20433;-87
2023/01/25 08:16:50;;;;;;;20.83;14.87;;;3.90;99.90;;;;;;6200673;23;20409;-86
2023/01/25 08:19:24;;;;;;;23.40;15.00;;;3.70;99.90;;;;;;6200133;22;20445;-85
2023/01/25 08:21:56;;;;;;;19.90;14.83;;;3.80;99.90;;;;;;6172875;23;20415;-87
2023/01/25 08:24:34;;;;;;;20.40;14.00;;;4.00;99.90;;;;;;6146409;23;20795;-86
2023/01/25 08:27:10;;;;;;;20.70;14.03;;;3.80;99.90;;;;;;6168338;23;20425;-85
2023/01/25 08:29:45;;;;;;;20.53;14.40;;;4.00;99.90;;;;;;6190269;23;20510;-86
2023/01/25 08:32:16;;;;;;;19.90;13.50;;;4.20;99.90;;;;;;6190130;23;20418;-85
2023/01/25 08:37:42;;;;;;;17.97;13.50;;;4.10;99.90;;;;;;6165746;23;20470;-86
2023/01/25 08:42:58;;;;;;;19.40;13.17;;;3.90;99.90;;;;;;6196263;23;20477;-85
2023/01/25 08:45:33;;;;;;;22.80;14.50;;;3.90;99.90;;;;;;6194944;23;20512;-85
2023/01/25 08:48:06;;;;;;;22.63;13.70;;;3.80;99.90;;;;;;6203283;23;20421;-86
2023/01/25 08:50:38;;;;;;;19.87;13.70;;;3.70;99.90;;;;;;6207017;23;20442;-88
2023/01/25 08:53:19;;;;;;;20.77;15.47;;;3.80;99.90;;;;;;6204074;23;20398;-87
2023/01/25 08:55:54;;;;;;;23.40;16.00;;;3.70;99.90;;;;;;6204240;23;20393;-89
2023/01/25 08:58:30;;;;;;;21.07;15.10;;;3.70;99.90;;;;;;6198590;23;20429;-87
2023/01/25 09:01:13;;;;;;;21.67;15.53;;;3.70;99.90;;;;;;6192999;23;20477;-86
2023/01/25 09:03:45;;;;;;;20.13;13.53;;;3.70;99.90;;;;;;6175692;23;20765;-84
2023/01/25 09:06:24;;;;;;;21.83;15.37;;;3.80;99.90;;;;;;6191528;23;20572;-88
2023/01/25 09:08:52;;;;;;;21.03;14.53;;;3.80;99.90;;;;;;6193387;23;20504;-86
2023/01/25 09:11:26;;;;;;;20.00;13.60;;;3.70;99.90;;;;;;6194728;23;20410;-88
2023/01/25 09:13:59;;;;;;;22.70;13.97;;;3.90;99.90;;;;;;6194434;23;20418;-86
2023/01/25 09:16:30;;;;;;;22.83;15.13;;;3.80;99.90;;;;;;6193417;23;20409;-88
2023/01/25 09:19:11;;;;;;;25.00;16.40;;;3.70;99.90;;;;;;6193520;23;20422;-87
2023/01/25 09:21:56;;;;;;;20.97;16.13;;;3.70;99.90;;;;;;6194976;23;20522;-86
2023/01/25 09:24:42;;;;;;;21.50;14.03;;;3.60;99.90;;;;;;6175816;23;20466;-86
2023/01/25 09:27:35;;;;;;;21.03;15.07;;;3.70;99.90;;;;;;6193679;23;20414;-85
2023/01/25 09:30:20;;;;;;;22.17;14.10;;;3.80;99.90;;;;;;6200709;23;20436;-86
2023/01/25 09:33:06;;;;;;;21.57;13.40;;;3.70;99.90;;;;;;6193072;23;20414;-85
2023/01/25 09:35:38;;;;;;;23.80;14.10;;;3.80;99.90;;;;;;6195177;23;20425;-87
2023/01/25 09:38:32;;;;;;;21.00;13.90;;;4.00;99.90;;;;;;6194540;23;20435;-86
2023/01/25 09:41:26;;;;;;;19.43;12.93;;;3.90;99.90;;;;;;6195753;23;20465;-86
2023/01/25 09:44:24;;;;;;;22.70;14.17;;;3.90;99.90;;;;;;6197167;23;20536;-86
2023/01/25 09:47:25;;;;;;;24.60;16.73;;;3.90;99.90;;;;;;6200738;23;20412;-90
2023/01/25 09:50:37;;;;;;;23.73;15.03;;;3.80;99.90;;;;;;6190822;22;20476;-87
2023/01/25 09:53:36;;;;;;;24.87;17.00;;;3.90;99.90;;;;;;6207537;23;20421;-86
2023/01/25 09:56:29;;;;;;;24.33;16.40;;;3.90;99.90;;;;;;6124830;23;20399;-87
2023/01/25 10:02:27;;;;;;;27.97;17.30;;;3.80;99.90;;;;;;6048282;23;20386;-86
2023/01/25 10:05:41;;;;;;;27.77;18.07;;;3.70;99.90;;;;;;6028499;23;20433;-86
2023/01/25 10:08:34;;;;;;;25.10;15.50;;;3.80;99.90;;;;;;6011534;23;20474;-89
2023/01/25 10:11:33;;;;;;;25.70;16.10;;;3.80;99.90;;;;;;6042282;23;20419;-87
2023/01/25 10:17:43;;;;;;;23.67;16.77;;;3.80;99.90;;;;;;5969297;23;20398;-87
2023/01/25 10:20:56;;;;;;;24.63;16.20;;;3.90;99.90;;;;;;6057260;23;20446;-86
2023/01/25 10:27:06;;;;;;;23.83;17.00;;;4.00;99.90;;;;;;5072282;27;20553;-87
2023/01/25 10:30:04;;;;;;;25.40;17.40;;;4.00;99.90;;;;;;5054069;28;20471;-86
2023/01/25 10:32:42;;;;;;;24.03;16.37;;;3.80;99.90;;;;;;5053285;28;20547;-87
2023/01/25 10:35:30;;;;;;;24.27;15.93;;;3.80;99.90;;;;;;5053463;28;20467;-88
2023/01/25 10:39:06;;;;;;;26.70;16.93;;;3.90;99.90;;;;;;5052145;28;20579;-87
2023/01/25 10:41:49;;;;;;;25.40;15.57;;;4.00;99.90;;;;;;5014948;28;20469;-89
2023/01/25 10:44:27;;;;;;;23.27;15.60;;;4.10;99.90;;;;;;5013033;28;20464;-87
2023/01/25 10:47:08;;;;;;;25.00;16.30;;;4.30;99.90;;;;;;5046485;28;20514;-87
2023/01/25 10:50:02;;;;;;;23.90;15.63;;;3.90;99.90;;;;;;5053886;28;20523;-88
2023/01/25 10:52:36;;;;;;;27.00;16.03;;;3.80;99.90;;;;;;5059693;28;20466;-87
2023/01/25 10:55:28;;;;;;;22.10;15.67;;;3.60;99.90;;;;;;5053378;28;20497;-89
2023/01/25 10:57:59;;;;;;;23.20;15.63;;;3.60;99.90;;;;;;5051269;28;20465;-87
2023/01/25 11:00:54;;;;;;;23.03;16.00;;;3.70;99.90;;;;;;5051284;28;20468;-86
2023/01/25 11:03:49;;;;;;;24.17;15.17;;;3.90;99.90;;;;;;5051219;28;20456;-87
2023/01/25 11:06:31;;;;;;;26.00;17.77;;;4.00;99.90;;;;;;5056387;28;20487;-89
2023/01/25 11:09:00;;;;;;;23.93;16.00;;;4.10;99.90;;;;;;5051636;28;21025;-87
2023/01/25 11:11:38;;;;;;;22.93;15.03;;;4.10;99.90;;;;;;5051165;28;20527;-87
2023/01/25 11:14:17;;;;;;;21.83;14.20;;;4.20;99.90;;;;;;5047382;28;20452;-90
2023/01/25 11:16:58;;;;;;;26.10;15.00;;;4.20;99.90;;;;;;5046374;28;20441;-84
2023/01/25 11:19:46;;;;;;;22.33;15.03;;;4.00;99.90;;;;;;5041371;28;20484;-86
2023/01/25 11:22:25;;;;;;;22.23;16.10;;;4.20;99.90;;;;;;5052240;28;20474;-87
2023/01/25 11:24:56;;;;;;;27.00;16.50;;;4.30;99.90;;;;;;5065779;28;20494;-88
2023/01/25 11:27:34;;;;;;;27.10;15.43;;;4.20;99.90;;;;;;5050289;28;20456;-87
2023/01/25 11:30:20;;;;;;;27.17;18.00;;;4.10;99.90;;;;;;5047108;28;20571;-88
2023/01/25 11:32:55;;;;;;;27.70;17.60;;;4.00;99.90;;;;;;5047348;28;20448;-85
2023/01/25 11:35:31;;;;;;;25.07;16.37;;;4.10;99.90;;;;;;5048544;28;21840;-86
2023/01/25 11:37:59;;;;;;;29.03;17.60;;;4.20;99.90;;;;;;5035067;28;20449;-87
2023/01/25 11:41:11;;;;;;;28.20;17.67;;;4.20;99.90;;;;;;5031637;28;20487;-87
2023/01/25 11:43:46;;;;;;;20.83;15.80;;;3.90;99.90;;;;;;5031896;28;20485;-87
2023/01/25 11:46:57;;;;;;;28.50;16.67;;;3.90;99.90;;;;;;5047653;28;20487;-87
2023/01/25 11:49:53;;;;;;;29.37;18.33;;;4.10;99.90;;;;;;5033093;28;20547;-88
2023/01/25 11:53:07;;;;;;;31.20;19.23;;;4.10;99.90;;;;;;5033879;28;20445;-86
2023/01/25 11:55:42;;;;;;;25.33;17.17;;;4.20;99.90;;;;;;5030869;28;21160;-90
2023/01/25 11:59:32;;;;;;;23.03;15.70;;;4.20;99.90;;;;;;5028475;28;20868;-87
2023/01/25 12:02:32;;;;;;;31.13;18.70;;;4.00;99.90;;;;;;5004732;28;20439;-86
2023/01/25 12:05:25;;;;;;;27.73;16.93;;;4.10;99.90;;;;;;5036496;28;20477;-86
2023/01/25 12:08:22;;;;;;;28.23;18.63;;;4.00;99.90;;;;;;5032689;28;20456;-89
2023/01/25 12:11:15;;;;;;;28.53;17.27;;;4.00;99.90;;;;;;5041987;28;20433;-87
2023/01/25 12:14:22;;;;;;;26.90;16.97;;;4.20;99.90;;;;;;5051692;28;20453;-88
2023/01/25 12:17:25;;;;;;;26.40;17.23;;;4.10;99.90;;;;;;5043126;28;20449;-89
2023/01/25 12:20:25;;;;;;;29.13;19.50;;;3.90;99.90;;;;;;5031380;28;20472;-87
2023/01/25 12:23:28;;;;;;;34.23;18.53;;;4.00;99.90;;;;;;5032396;28;20476;-87
2023/01/25 12:25:57;;;;;;;32.10;19.60;;;4.00;99.90;;;;;;5046733;28;20644;-86
2023/01/25 12:28:43;;;;;;;29.00;19.13;;;4.10;99.90;;;;;;5032757;28;20446;-85
2023/01/25 12:31:40;;;;;;;30.20;19.23;;;4.00;99.90;;;;;;5035301;28;20469;-89
2023/01/25 12:34:31;;;;;;;31.50;20.13;;;4.00;99.90;;;;;;5033233;28;20457;-86
2023/01/25 12:37:19;;;;;;;29.97;19.00;;;4.20;99.90;;;;;;5032677;28;20457;-87
2023/01/25 12:40:13;;;;;;;27.20;17.93;;;4.10;99.90;;;;;;5032225;28;20461;-88
2023/01/25 12:42:58;;;;;;;30.47;17.60;;;4.00;99.90;;;;;;5018161;28;20540;-87
2023/01/25 12:45:55;;;;;;;29.83;18.60;;;4.10;99.90;;;;;;5030397;28;20542;-85
2023/01/25 12:48:30;;;;;;;36.00;20.03;;;4.10;99.90;;;;;;5043921;28;20469;-86
2023/01/25 12:51:00;;;;;;;32.97;20.80;;;4.20;99.90;;;;;;5033865;28;20442;-86
2023/01/25 12:53:56;;;;;;;33.53;20.60;;;4.20;99.90;;;;;;5035026;28;20445;-86
2023/01/25 12:57:07;;;;;;;28.80;18.47;;;4.40;99.90;;;;;;5033971;28;20469;-85
2023/01/25 13:00:17;;;;;;;35.63;20.33;;;4.40;99.90;;;;;;5022079;28;20582;-87
2023/01/25 13:03:40;;;;;;;31.63;18.93;;;4.30;99.90;;;;;;5033810;28;20449;-86
2023/01/25 13:06:55;;;;;;;32.67;20.57;;;4.30;99.90;;;;;;5034790;28;20519;-86
2023/01/25 13:10:25;;;;;;;27.13;18.13;;;4.10;99.90;;;;;;5036027;28;20531;-88
2023/01/25 13:13:19;;;;;;;30.40;19.07;;;4.20;99.90;;;;;;5017860;28;20449;-89
2023/01/25 13:16:18;;;;;;;32.67;19.30;;;4.10;99.90;;;;;;5001948;28;20466;-86
2023/01/25 13:19:40;;;;;;;42.90;19.43;;;4.20;99.90;;;;;;5031662;28;20457;-86
2023/01/25 13:23:11;;;;;;;;;;;;;;;;;;;;;
2023/01/25 13:26:23;;;;;;;31.27;19.73;;;4.10;99.90;;;;;;5031245;28;20477;-86
2023/01/25 13:30:09;;;;;;;27.03;15.90;;;4.30;99.90;;;;;;5024774;28;20519;-88
2023/01/25 13:32:55;;;;;;;29.50;19.10;;;4.30;99.90;;;;;;5014478;28;20541;-88
2023/01/25 13:35:27;;;;;;;28.57;18.63;;;4.10;99.90;;;;;;5014080;28;21094;-86
2023/01/25 13:38:30;;;;;;;26.27;18.00;;;3.80;99.90;;;;;;4992369;28;20458;-86
2023/01/25 13:41:18;;;;;;;28.30;17.40;;;3.80;99.90;;;;;;5000646;28;20458;-86
2023/01/25 13:44:12;;;;;;;30.17;17.97;;;4.30;99.90;;;;;;5013757;28;20474;-86
2023/01/25 13:46:49;;;;;;;24.33;16.13;;;4.20;99.90;;;;;;5007269;28;20580;-87
2023/01/25 13:49:38;;;;;;;25.37;17.27;;;4.20;99.90;;;;;;5018877;28;20449;-86
2023/01/25 13:52:13;;;;;;;26.07;16.80;;;4.10;99.90;;;;;;5046014;28;20437;-86
2023/01/25 13:54:44;;;;;;;25.03;14.57;;;4.00;99.90;;;;;;5039517;28;20519;-86
2023/01/25 13:57:19;;;;;;;31.20;19.07;;;3.90;99.90;;;;;;5033981;28;20551;-85
2023/01/25 14:00:09;;;;;;;31.40;19.00;;;3.70;99.90;;;;;;5038862;28;20496;-89
2023/01/25 14:03:05;;;;;;;31.20;18.03;;;3.60;99.90;;;;;;5034442;28;20457;-87